Time;durP1;ratioP1;P1;durP2;ratioP2;P2;SDS_P1;SDS_P2;PMS_P1;PMS_P2;Temp;Humidity;BMP_temperature;BMP_pressure;BME280_temperature;BME280_humidity;BME280_pressure;Samples;Min_cycle;Max_cycle;Signal;HPM_P1;HPM_P2
2022/01/30 00:00:17;;;;;;;;;5.00;5.00;;;;;11.05;74.99;102879.47;5098946;27;45231;-54
2022/01/30 00:02:42;;;;;;;;;7.33;4.00;;;;;11.05;75.22;102884.78;5098661;27;46170;-43
2022/01/30 00:05:08;;;;;;;;;6.33;3.67;;;;;11.03;74.79;102877.84;5098556;27;45508;-48
2022/01/30 00:07:34;;;;;;;;;8.00;6.00;;;;;11.01;75.13;102861.97;5097498;27;45298;-54
2022/01/30 00:09:59;;;;;;;;;4.00;4.00;;;;;11.07;75.11;102866.03;5098572;27;45385;-55
2022/01/30 00:12:40;;;;;;;;;6.00;3.00;;;;;11.05;74.97;102863.47;5098308;27;46074;-44
2022/01/30 00:15:05;;;;;;;;;8.67;5.67;;;;;11.09;74.87;102875.66;5098267;27;45324;-55
2022/01/30 00:17:34;;;;;;;;;8.00;6.00;;;;;11.11;74.91;102873.72;5098217;27;45373;-47
2022/01/30 00:20:04;;;;;;;;;6.00;5.67;;;;;11.13;75.14;102871.84;5098556;27;45592;-49
2022/01/30 00:24:59;;;;;;;;;8.00;6.00;;;;;11.09;75.00;102861.47;5098199;27;45213;-53
2022/01/30 00:27:43;;;;;;;;;5.00;5.00;;;;;11.15;75.09;102869.91;5098350;27;45400;-43
2022/01/30 00:30:11;;;;;;;;;6.00;6.00;;;;;11.15;75.00;102877.91;5098528;27;45444;-44
2022/01/30 00:32:36;;;;;;;;;4.33;4.33;;;;;11.16;74.81;102868.09;5097946;27;46123;-54
2022/01/30 00:35:02;;;;;;;;;7.67;6.00;;;;;11.15;74.89;102861.91;5098136;27;45516;-43
2022/01/30 00:37:28;;;;;;;;;9.00;6.00;;;;;11.17;74.81;102859.19;5079821;27;45380;-52
2022/01/30 00:39:53;;;;;;;;;6.00;6.00;;;;;11.18;74.86;102863.53;5098305;27;45214;-46
2022/01/30 00:42:19;;;;;;;;;6.00;4.33;;;;;11.19;74.67;102854.59;5097661;27;45919;-48
2022/01/30 00:44:44;;;;;;;;;9.67;7.33;;;;;11.17;74.76;102853.84;5100800;27;45779;-49
2022/01/30 00:47:13;;;;;;;;;6.00;6.00;;;;;11.17;75.13;102854.69;5101870;27;45334;-52
2022/01/30 00:49:40;;;;;;;;;5.33;3.67;;;;;11.16;74.89;102855.63;5101958;27;45362;-45
2022/01/30 00:52:06;;;;;;;;;5.33;5.33;;;;;11.19;75.15;102852.78;5101070;27;45434;-48
2022/01/30 00:54:32;;;;;;;;;11.00;5.50;;;;;11.17;75.02;102849.38;5101567;27;45958;-53
2022/01/30 00:56:57;;;;;;;;;4.67;3.67;;;;;11.19;75.06;102855.44;5101498;27;45353;-55
2022/01/30 00:59:22;;;;;;;;;5.00;3.00;;;;;11.20;75.17;102851.81;5101692;27;45452;-45
2022/01/30 01:01:48;;;;;;;;;3.67;3.33;;;;;11.18;74.91;102839.56;5101490;27;45275;-44
2022/01/30 01:04:13;;;;;;;;;8.00;5.33;;;;;11.16;75.24;102829.00;5101478;27;45400;-49
2022/01/30 01:06:40;;;;;;;;;10.00;5.33;;;;;11.13;75.06;102839.88;5101952;27;45674;-51
2022/01/30 01:09:06;;;;;;;;;7.33;3.33;;;;;11.06;75.19;102837.69;5101679;27;45211;-46
2022/01/30 01:25:02;;;;;;;;;5.67;5.00;;;;;10.67;75.94;102821.50;5100894;27;45426;-49
2022/01/30 01:27:27;;;;;;;;;5.00;3.00;;;;;10.62;75.91;102814.72;5100697;27;45396;-48
2022/01/30 01:29:53;;;;;;;;;8.67;4.33;;;;;10.60;76.38;102829.97;5101237;27;45239;-48
2022/01/30 01:32:18;;;;;;;;;2.00;2.00;;;;;10.58;76.63;102823.88;5101021;27;46432;-51
2022/01/30 01:34:44;;;;;;;;;6.00;4.33;;;;;10.57;76.27;102824.81;5100901;27;45350;-55
2022/01/30 01:37:11;;;;;;;;;11.00;5.00;;;;;10.57;76.51;102823.00;5100987;27;45323;-52
2022/01/30 01:39:37;;;;;;;;;3.67;3.00;;;;;10.52;76.38;102813.59;5101112;27;45458;-45
2022/01/30 01:42:03;;;;;;;;;12.67;6.67;;;;;10.57;76.13;102817.69;5100400;27;46265;-42
2022/01/30 01:44:38;;;;;;;;;7.00;5.00;;;;;10.59;76.33;102823.78;5100489;27;45254;-48
2022/01/30 01:47:04;;;;;;;;;4.33;4.33;;;;;10.63;76.13;102819.13;5100620;27;45389;-43
2022/01/30 01:49:32;;;;;;;;;5.00;5.00;;;;;10.69;76.15;102827.56;5081012;27;45469;-42
2022/01/30 01:54:58;;;;;;;;;5.50;3.00;;;;;10.78;75.75;102817.28;5036665;28;45432;-51
2022/01/30 01:57:25;;;;;;;;;7.00;4.33;;;;;10.82;75.38;102824.13;5037600;28;45518;-46
2022/01/30 01:59:51;;;;;;;;;9.00;6.00;;;;;10.80;75.25;102810.94;5037323;28;45420;-41
2022/01/30 02:02:17;;;;;;;;;9.00;8.00;;;;;10.77;75.17;102810.25;5036879;28;45531;-48
2022/01/30 02:04:42;;;;;;;;;7.33;7.00;;;;;10.85;74.96;102827.47;5037106;28;45447;-48
2022/01/30 02:07:38;;;;;;;;;10.33;5.33;;;;;10.82;75.07;102824.97;5037409;28;45472;-43
2022/01/30 02:09:54;;;;;;;;;5.67;5.00;;;;;10.88;75.12;102821.94;5037165;28;45359;-49
2022/01/30 02:12:28;;;;;;;;;9.33;6.33;;;;;10.91;75.08;102819.09;5036897;28;46477;-43
2022/01/30 02:26:06;;;;;;;;;10.00;7.00;;;;;10.95;74.65;102809.06;4997260;28;45479;-49
2022/01/30 02:28:33;;;;;;;;;11.33;6.33;;;;;10.95;74.59;102809.94;4997146;28;45263;-42
2022/01/30 02:31:05;;;;;;;;;11.67;5.33;;;;;10.98;74.84;102808.88;5003325;28;45424;-43
2022/01/30 02:33:30;;;;;;;;;3.67;3.67;;;;;10.97;74.41;102802.72;5036647;28;45379;-46
2022/01/30 02:35:56;;;;;;;;;10.67;8.00;;;;;10.98;74.35;102803.56;5036729;28;45415;-49
2022/01/30 02:38:23;;;;;;;;;9.67;5.67;;;;;10.99;74.74;102807.94;5036877;28;45406;-50
2022/01/30 02:40:51;;;;;;;;;10.00;6.67;;;;;10.99;74.63;102807.94;5037028;28;45548;-42
2022/01/30 02:43:20;;;;;;;;;8.33;8.33;;;;;10.99;74.48;102807.94;5036943;28;46086;-49
2022/01/30 02:45:59;;;;;;;;;6.67;5.00;;;;;10.99;74.60;102799.94;5037032;28;45425;-45
2022/01/30 02:48:32;;;;;;;;;10.00;6.00;;;;;10.99;74.28;102795.47;5036997;28;45406;-45
2022/01/30 02:51:09;;;;;;;;;8.33;6.00;;;;;10.98;74.53;102793.75;5044074;27;45332;-46
2022/01/30 02:53:40;;;;;;;;;11.67;8.33;;;;;11.02;74.62;102815.72;5099933;27;46408;-47
2022/01/30 02:56:06;;;;;;;;;11.00;7.00;;;;;11.02;74.58;102815.72;5099231;27;45481;-46
2022/01/30 02:58:31;;;;;;;;;8.00;8.00;;;;;11.03;74.50;102812.09;5099302;27;45397;-44
2022/01/30 03:00:56;;;;;;;;;8.33;7.33;;;;;11.04;74.69;102805.84;5099655;27;45350;-45
2022/01/30 03:03:22;;;;;;;;;9.67;7.00;;;;;11.05;74.18;102806.69;5099340;27;47183;-43
2022/01/30 03:05:48;;;;;;;;;10.67;8.00;;;;;11.06;73.96;102811.06;5081136;27;45784;-44
2022/01/30 03:08:13;;;;;;;;;12.00;6.00;;;;;11.06;74.25;102811.91;5098353;27;45316;-46
2022/01/30 03:10:39;;;;;;;;;11.33;7.67;;;;;11.05;74.12;102810.22;5099897;27;45350;-45
2022/01/30 03:13:04;;;;;;;;;7.33;6.67;;;;;11.04;73.77;102803.19;5098719;27;45377;-43
2022/01/30 03:15:30;;;;;;;;;11.00;9.33;;;;;11.05;74.26;102818.19;5099160;27;45308;-46
2022/01/30 03:17:55;;;;;;;;;14.33;10.67;;;;;11.08;74.14;102819.78;5099396;27;45423;-42
2022/01/30 03:20:22;;;;;;;;;10.67;8.33;;;;;11.06;74.02;102817.25;5099432;27;45415;-45
2022/01/30 03:22:47;;;;;;;;;13.33;9.33;;;;;11.06;73.86;102811.91;5081176;27;46209;-42
2022/01/30 03:25:12;;;;;;;;;9.00;8.67;;;;;11.06;74.12;102811.91;5099053;27;45319;-42
2022/01/30 03:27:41;;;;;;;;;17.33;10.00;;;;;11.02;73.70;102810.41;5099169;27;45262;-44
2022/01/30 03:30:13;;;;;;;;;9.00;6.67;;;;;11.08;73.74;102819.78;5099053;27;45215;-43
2022/01/30 03:32:39;;;;;;;;;16.00;6.00;;;;;11.01;73.71;102814.03;5098174;27;45500;-43
2022/01/30 03:35:05;;;;;;;;;11.67;7.00;;;;;11.08;73.63;102820.69;5098739;27;45406;-45
2022/01/30 03:37:30;;;;;;;;;18.00;10.33;;;;;11.09;73.42;102825.03;5099001;27;45328;-42
2022/01/30 03:39:56;;;;;;;;;11.67;7.67;;;;;11.08;73.09;102817.13;5099101;27;45239;-43
2022/01/30 03:42:22;;;;;;;;;14.33;9.00;;;;;11.07;72.85;102813.63;5098190;27;48003;-42
2022/01/30 03:44:47;;;;;;;;;13.67;10.00;;;;;11.04;71.98;102827.16;5098694;27;45675;-44
2022/01/30 03:47:13;;;;;;;;;6.00;6.00;;;;;11.03;71.55;102825.41;5098998;27;45285;-45
2022/01/30 03:49:39;;;;;;;;;14.33;7.33;;;;;10.99;71.13;102814.09;5099078;27;45474;-46
2022/01/30 03:52:05;;;;;;;;;11.67;8.67;;;;;10.96;70.29;102813.47;5098464;27;46029;-44
2022/01/30 03:54:32;;;;;;;;;10.33;6.00;;;;;10.95;70.16;102820.56;5097847;27;45179;-47
2022/01/30 03:56:58;;;;;;;;;7.67;4.33;;;;;10.94;70.10;102820.69;5098579;27;45353;-45
2022/01/30 03:59:23;;;;;;;;;5.33;3.00;;;;;10.91;69.84;102818.22;5098569;27;45497;-43
2022/01/30 04:01:49;;;;;;;;;10.33;6.00;;;;;10.90;69.77;102827.16;5097616;27;46059;-43
2022/01/30 04:04:14;;;;;;;;;7.00;6.00;;;;;10.89;68.19;102825.47;5098203;27;45182;-42
2022/01/30 04:06:40;;;;;;;;;6.67;3.00;;;;;10.87;67.36;102822.03;5098661;27;45342;-43
2022/01/30 04:09:05;;;;;;;;;6.00;2.00;;;;;10.82;65.76;102824.13;5098528;27;45452;-43
2022/01/30 04:11:31;;;;;;;;;6.33;2.00;;;;;10.76;64.73;102827.19;5098219;27;45787;-47
2022/01/30 04:13:56;;;;;;;;;5.00;2.00;;;;;10.62;64.38;102815.63;5098186;27;45392;-42
2022/01/30 04:16:22;;;;;;;;;3.33;1.00;;;;;10.65;64.22;102834.03;5098198;27;45214;-42
2022/01/30 04:18:47;;;;;;;;;11.33;1.00;;;;;10.60;63.10;102830.81;5098369;27;45259;-41
2022/01/30 04:21:13;;;;;;;;;5.67;2.33;;;;;10.56;62.82;102839.94;5097961;27;46183;-44
2022/01/30 04:23:39;;;;;;;;;3.00;1.00;;;;;10.53;62.69;102832.13;5098181;27;45467;-42
2022/01/30 04:26:05;;;;;;;;;4.67;2.33;;;;;10.38;62.81;102818.00;5098202;27;45374;-43
2022/01/30 04:28:31;;;;;;;;;2.33;0.00;;;;;10.43;61.82;102828.34;5098268;27;45440;-45
2022/01/30 04:30:57;;;;;;;;;1.00;1.00;;;;;10.44;61.86;102843.34;5097839;27;45460;-41
2022/01/30 04:33:22;;;;;;;;;2.00;1.67;;;;;10.39;61.84;102838.31;5097965;27;45377;-40
2022/01/30 04:35:48;;;;;;;;;6.00;2.00;;;;;10.36;61.86;102840.31;5097673;27;45329;-42
2022/01/30 04:38:31;;;;;;;;;1.33;1.00;;;;;10.33;61.37;102840.50;5098059;27;45432;-46
2022/01/30 04:41:21;;;;;;;;;9.33;3.00;;;;;10.28;61.07;102837.25;5097530;27;46786;-43
2022/01/30 05:02:38;;;;;;;;;3.67;1.00;;;;;10.20;60.35;102862.50;5097336;27;45389;-43
2022/01/30 05:09:50;;;;;;;;;4.00;2.00;;;;;10.18;60.73;102860.88;5097777;27;45321;-44
2022/01/30 05:12:16;;;;;;;;;1.33;1.33;;;;;10.20;60.60;102859.00;5097259;27;46140;-43
2022/01/30 05:14:42;;;;;;;;;1.33;1.00;;;;;10.21;60.27;102856.22;5097534;27;45404;-42
2022/01/30 05:17:08;;;;;;;;;2.33;2.00;;;;;10.21;60.60;102863.34;5097302;27;45377;-42
2022/01/30 05:19:33;;;;;;;;;1.33;1.00;;;;;10.23;60.23;102864.09;5097720;27;45456;-42
2022/01/30 05:21:59;;;;;;;;;5.00;0.67;;;;;10.24;60.15;102871.16;5097225;27;45241;-42
2022/01/30 05:24:25;;;;;;;;;2.33;0.67;;;;;10.17;60.17;102854.69;5097391;27;45358;-46
2022/01/30 05:26:51;;;;;;;;;1.67;1.67;;;;;10.24;60.10;102865.84;5097417;27;45436;-43
2022/01/30 05:29:17;;;;;;;;;1.00;1.00;;;;;10.16;60.10;102873.41;5097613;27;45437;-41
2022/01/30 05:31:43;;;;;;;;;3.67;1.00;;;;;10.18;60.27;102875.03;5099620;27;45270;-42
2022/01/30 05:34:09;;;;;;;;;6.67;2.67;;;;;10.19;59.63;102883.84;5100719;27;45396;-42
2022/01/30 05:36:39;;;;;;;;;3.33;1.00;;;;;10.20;60.13;102877.59;5100693;27;45391;-44
2022/01/30 05:39:05;;;;;;;;;3.67;2.33;;;;;10.20;60.15;102875.81;5101211;27;45245;-45
2022/01/30 05:41:32;;;;;;;;;3.00;1.00;;;;;10.22;59.87;102883.69;5100207;27;47626;-41
2022/01/30 05:44:06;;;;;;;;;3.00;2.00;;;;;10.20;59.88;102881.13;5100566;27;45231;-40
2022/01/30 05:46:39;;;;;;;;;7.33;2.00;;;;;10.20;59.67;102882.94;5100595;27;45417;-41
2022/01/30 05:49:05;;;;;;;;;7.00;1.00;;;;;10.16;60.38;102887.56;5082410;27;45361;-42
2022/01/30 05:51:30;;;;;;;;;5.00;1.00;;;;;10.14;59.63;102888.59;5100231;27;47313;-43
2022/01/30 05:53:56;;;;;;;;;3.67;3.00;;;;;10.10;59.92;102879.09;5100566;27;45281;-44
2022/01/30 05:56:21;;;;;;;;;2.67;2.67;;;;;10.10;60.23;102881.75;5100508;27;45258;-42
2022/01/30 05:58:47;;;;;;;;;2.00;1.67;;;;;10.10;60.14;102895.91;5100709;27;45416;-42
2022/01/30 06:01:12;;;;;;;;;1.33;1.33;;;;;10.07;60.42;102890.78;5100048;27;45323;-44
2022/01/30 06:03:38;;;;;;;;;1.00;1.00;;;;;10.06;60.35;102886.38;5100294;27;45390;-41
2022/01/30 06:06:03;;;;;;;;;2.33;2.00;;;;;10.05;60.27;102889.16;5100466;27;45349;-43
2022/01/30 06:08:41;;;;;;;;;1.67;1.00;;;;;10.04;59.98;102890.97;5100499;27;45380;-48
2022/01/30 06:11:08;;;;;;;;;2.00;2.00;;;;;10.01;60.28;102893.78;5099862;27;46438;-42
2022/01/30 06:13:33;;;;;;;;;4.67;2.00;;;;;9.97;60.63;102892.25;5100111;27;45376;-49
2022/01/30 06:15:59;;;;;;;;;4.33;1.00;;;;;9.92;60.80;102897.00;5099941;27;45169;-45
2022/01/30 06:18:25;;;;;;;;;2.00;2.00;;;;;9.79;60.30;102886.22;5100238;27;45415;-42
2022/01/30 06:20:51;;;;;;;;;2.33;2.33;;;;;9.86;60.30;102911.50;5099928;27;45378;-45
2022/01/30 06:23:16;;;;;;;;;1.67;1.00;;;;;9.78;60.43;102905.78;5099851;27;45329;-43
2022/01/30 06:25:41;;;;;;;;;2.00;2.00;;;;;9.78;60.73;102903.13;5100290;27;45242;-46
2022/01/30 06:28:07;;;;;;;;;5.00;2.00;;;;;9.82;60.37;102909.09;5100298;27;45206;-56
2022/01/30 06:30:32;;;;;;;;;3.00;2.00;;;;;9.81;60.70;102920.66;5099552;27;46282;-45
2022/01/30 06:32:57;;;;;;;;;1.00;1.00;;;;;9.80;60.67;102921.63;5099546;27;45345;-52
2022/01/30 06:35:23;;;;;;;;;7.00;1.67;;;;;9.79;60.35;102907.47;5099866;27;45239;-44
2022/01/30 06:37:48;;;;;;;;;3.00;1.00;;;;;9.75;61.29;102906.78;5100125;27;45338;-46
2022/01/30 06:40:13;;;;;;;;;2.00;2.00;;;;;9.75;60.89;102917.44;5099654;27;45265;-54
2022/01/30 06:42:39;;;;;;;;;3.00;1.00;;;;;9.78;60.88;102920.88;5099220;27;45406;-41
2022/01/30 06:45:06;;;;;;;;;2.00;2.00;;;;;9.74;60.97;102917.53;5099819;27;45361;-53
2022/01/30 06:47:31;;;;;;;;;2.67;1.33;;;;;9.69;60.69;102916.91;5099641;27;45445;-44
2022/01/30 06:49:57;;;;;;;;;1.00;1.00;;;;;9.66;60.86;102919.75;5098849;27;45323;-42
2022/01/30 06:52:22;;;;;;;;;5.67;1.00;;;;;9.62;60.83;102910.25;5081011;27;45444;-44
2022/01/30 06:54:47;;;;;;;;;5.33;3.00;;;;;9.62;61.44;102916.41;5099635;27;45933;-42
2022/01/30 06:57:13;;;;;;;;;5.00;4.33;;;;;9.62;60.82;102912.91;5099660;27;45452;-44
2022/01/30 06:59:38;;;;;;;;;5.67;2.00;;;;;9.63;60.75;102919.94;5099407;27;45311;-44
2022/01/30 07:02:06;;;;;;;;;1.00;1.00;;;;;9.54;60.81;102905.38;5099135;27;45318;-44
2022/01/30 07:04:31;;;;;;;;;5.00;1.67;;;;;9.60;60.91;102917.44;5099382;27;45377;-41
2022/01/30 07:06:57;;;;;;;;;6.67;2.00;;;;;9.57;60.43;102918.50;5099440;27;45153;-43
2022/01/30 07:09:23;;;;;;;;;6.00;1.67;;;;;9.55;60.55;102915.03;5099179;27;46377;-42
2022/01/30 07:11:48;;;;;;;;;3.00;1.33;;;;;9.46;60.63;102903.13;5099065;27;45309;-42
2022/01/30 07:14:13;;;;;;;;;2.67;2.00;;;;;9.48;61.13;102913.66;5099559;27;45765;-44
2022/01/30 07:16:39;;;;;;;;;8.33;2.33;;;;;9.44;60.55;102917.47;5099273;27;45180;-42
2022/01/30 07:19:04;;;;;;;;;2.33;1.00;;;;;9.38;60.99;102921.31;5099264;27;46290;-44
2022/01/30 07:21:30;;;;;;;;;2.00;1.00;;;;;9.25;60.76;102907.84;5099153;27;45392;-43
2022/01/30 07:23:55;;;;;;;;;4.00;2.00;;;;;9.33;60.90;102931.34;5082450;27;45472;-43
2022/01/30 07:26:20;;;;;;;;;6.33;2.00;;;;;9.30;61.01;102942.13;5099544;27;45342;-42
2022/01/30 07:28:46;;;;;;;;;6.00;4.33;;;;;9.25;61.66;102942.38;5099063;27;47048;-44
2022/01/30 07:31:11;;;;;;;;;5.67;3.00;;;;;9.25;61.41;102946.84;5098922;27;45396;-43
2022/01/30 07:33:40;;;;;;;;;4.67;1.33;;;;;9.23;61.39;102952.25;5098915;27;45400;-42
2022/01/30 07:36:06;;;;;;;;;3.67;1.00;;;;;9.22;61.79;102955.81;5099130;27;45281;-43
2022/01/30 07:38:32;;;;;;;;;4.33;2.00;;;;;9.22;61.27;102965.59;5098495;27;45287;-44
2022/01/30 07:40:57;;;;;;;;;7.33;1.67;;;;;9.25;60.61;102966.28;5098549;27;45198;-43
2022/01/30 07:43:23;;;;;;;;;4.33;2.00;;;;;9.24;61.84;102969.88;5098869;27;45214;-43
2022/01/30 07:45:48;;;;;;;;;7.33;2.00;;;;;9.29;61.12;102968.78;5098928;27;45512;-42
2022/01/30 07:48:15;;;;;;;;;10.67;5.33;;;;;9.30;61.16;102970.50;5098301;27;46367;-44
2022/01/30 07:50:40;;;;;;;;;2.33;2.33;;;;;9.31;60.63;102970.41;5098546;27;45373;-44
2022/01/30 07:53:06;;;;;;;;;3.67;2.67;;;;;9.32;60.63;102974.78;5097738;27;45247;-43
2022/01/30 07:55:31;;;;;;;;;6.33;2.67;;;;;9.36;60.61;102979.00;5099066;27;45274;-41
2022/01/30 07:57:57;;;;;;;;;2.33;2.33;;;;;9.37;61.19;102980.69;5098512;27;46284;-41
2022/01/30 08:00:22;;;;;;;;;7.33;2.00;;;;;9.39;60.96;102980.59;5097391;27;45346;-44
2022/01/30 08:02:49;;;;;;;;;7.33;2.00;;;;;9.43;61.59;102982.16;5098539;27;45207;-43
2022/01/30 08:05:15;;;;;;;;;2.33;2.00;;;;;9.49;60.86;102979.16;5098829;27;45331;-42
2022/01/30 08:07:40;;;;;;;;;4.33;3.33;;;;;9.58;60.66;102988.44;5098010;27;46342;-43
2022/01/30 08:10:06;;;;;;;;;5.33;1.00;;;;;9.65;60.46;102990.66;5098246;27;45508;-43
2022/01/30 08:12:31;;;;;;;;;6.67;3.00;;;;;9.73;60.99;102991.09;5098194;27;45384;-42
2022/01/30 08:14:57;;;;;;;;;2.00;2.00;;;;;9.81;60.61;102992.44;5098479;27;45372;-43
2022/01/30 08:17:23;;;;;;;;;7.00;2.33;;;;;9.89;60.38;102999.03;5097787;27;46154;-45
2022/01/30 08:19:50;;;;;;;;;2.00;2.00;;;;;9.87;60.27;102981.47;5098193;27;45284;-50
2022/01/30 08:22:16;;;;;;;;;5.33;3.00;;;;;10.07;60.23;102998.94;5098036;27;45487;-41
2022/01/30 08:24:41;;;;;;;;;5.33;3.00;;;;;10.13;59.43;102996.78;5098305;27;45361;-45
2022/01/30 08:27:07;;;;;;;;;3.33;1.00;;;;;10.22;59.17;102993.59;5098056;27;45377;-44
2022/01/30 08:29:33;;;;;;;;;7.67;2.00;;;;;10.31;58.67;102988.72;5097934;27;45358;-43
2022/01/30 08:31:58;;;;;;;;;5.67;3.00;;;;;10.32;58.65;102990.41;5097745;27;45306;-41
2022/01/30 08:34:24;;;;;;;;;7.00;3.00;;;;;10.33;58.39;102990.34;5097960;27;45533;-42
2022/01/30 08:36:50;;;;;;;;;5.00;2.00;;;;;10.45;58.08;102991.44;5097767;27;45391;-45
2022/01/30 08:39:15;;;;;;;;;8.00;2.67;;;;;10.57;57.41;103000.47;5097665;27;45299;-52
2022/01/30 08:41:41;;;;;;;;;6.00;2.33;;;;;10.65;57.47;102985.75;5097585;27;45258;-42
2022/01/30 08:44:06;;;;;;;;;10.33;3.67;;;;;10.74;56.96;102982.56;5097196;27;45398;-46
2022/01/30 08:46:32;;;;;;;;;8.00;1.00;;;;;10.86;56.65;102988.06;5097360;27;47073;-52
2022/01/30 08:48:57;;;;;;;;;2.33;2.00;;;;;10.91;55.95;102983.31;5097327;27;45302;-43
2022/01/30 08:51:22;;;;;;;;;2.00;2.00;;;;;10.84;56.02;102990.84;5097841;27;45195;-51
2022/01/30 08:53:48;;;;;;;;;2.33;2.33;;;;;10.71;55.87;102976.56;5097805;27;45378;-54
2022/01/30 08:56:13;;;;;;;;;5.67;2.67;;;;;10.72;56.69;102994.25;5096681;27;45346;-48
2022/01/30 08:58:39;;;;;;;;;3.33;1.00;;;;;10.63;57.57;102987.66;5097431;27;45389;-44
2022/01/30 09:01:04;;;;;;;;;3.00;2.00;;;;;10.51;55.69;102998.19;5097423;27;45410;-51
2022/01/30 09:03:29;;;;;;;;;12.33;4.33;;;;;10.43;55.60;102995.97;5079188;27;45445;-44
2022/01/30 09:05:55;;;;;;;;;7.00;5.67;;;;;10.37;57.06;102993.69;5099015;27;47193;-46
2022/01/30 09:08:20;;;;;;;;;2.00;2.00;;;;;10.30;56.42;102995.84;5101145;27;45446;-43
2022/01/30 09:10:46;;;;;;;;;5.00;3.00;;;;;10.29;56.40;102999.44;5101184;27;45276;-42
2022/01/30 09:13:12;;;;;;;;;1.00;1.00;;;;;10.24;57.59;102997.06;5101069;27;45338;-47
2022/01/30 09:15:40;;;;;;;;;5.00;2.33;;;;;10.23;56.28;102997.09;5100810;27;46448;-54
2022/01/30 09:18:09;;;;;;;;;3.00;3.00;;;;;10.15;56.12;102981.56;5100702;27;45476;-44
2022/01/30 09:20:36;;;;;;;;;5.00;1.00;;;;;10.27;55.94;102996.00;5100956;27;45310;-50
2022/01/30 09:23:02;;;;;;;;;4.33;2.00;;;;;10.32;56.53;102990.41;5082718;27;45376;-54
2022/01/30 09:25:27;;;;;;;;;5.33;2.00;;;;;10.26;56.43;102973.03;5100589;27;46559;-43
2022/01/30 09:27:53;;;;;;;;;3.00;3.00;;;;;10.48;55.72;103001.88;5100900;27;45308;-55
2022/01/30 09:30:18;;;;;;;;;2.00;2.00;;;;;10.96;55.07;103007.88;5100702;27;45349;-44
2022/01/30 09:32:44;;;;;;;;;7.00;1.67;;;;;12.73;54.00;103004.34;5100713;27;45393;-52
2022/01/30 09:35:09;;;;;;;;;6.67;3.00;;;;;14.55;49.13;103000.97;5100464;27;46332;-42
2022/01/30 09:37:35;;;;;;;;;2.33;1.00;;;;;16.02;45.53;102999.13;5100556;27;45498;-42
2022/01/30 09:40:00;;;;;;;;;1.67;1.33;;;;;16.95;42.12;102996.59;5100965;27;45558;-42
2022/01/30 09:42:25;;;;;;;;;3.33;1.67;;;;;17.97;43.62;102991.09;5100527;27;45215;-47
2022/01/30 09:44:51;;;;;;;;;1.67;1.67;;;;;18.64;40.86;103001.00;5100519;27;45602;-54
2022/01/30 09:47:17;;;;;;;;;6.33;3.00;;;;;19.09;40.17;102982.31;5100618;27;45378;-48
2022/01/30 09:49:51;;;;;;;;;3.00;3.00;;;;;19.75;36.53;102997.44;5100364;27;45462;-44
2022/01/30 09:52:18;;;;;;;;;0.75;0.75;;;;;20.46;34.48;102998.44;5100754;27;45382;-44
2022/01/30 09:54:44;;;;;;;;;3.75;3.25;;;;;20.97;34.51;102991.38;5100284;27;45484;-43
2022/01/30 09:57:10;;;;;;;;;4.00;4.00;;;;;21.49;33.00;102996.72;5100277;27;45384;-51
2022/01/30 09:59:35;;;;;;;;;5.25;3.00;;;;;21.95;34.61;103000.72;5100522;27;45224;-41
2022/01/30 10:02:08;;;;;;;;;7.50;3.25;;;;;22.48;33.65;102985.00;5100415;27;45285;-47
2022/01/30 10:04:35;;;;;;;;;4.50;1.75;;;;;23.02;33.47;102996.13;5099864;27;46316;-50
2022/01/30 10:07:11;;;;;;;;;3.20;2.00;;;;;23.18;33.78;102987.94;5100141;27;45377;-42
2022/01/30 10:09:43;;;;;;;;;4.00;1.20;;;;;23.41;30.78;102985.28;5100272;27;45313;-44
2022/01/30 10:12:14;;;;;;;;;6.75;3.75;;;;;23.62;33.36;102990.94;5100241;27;45442;-44
2022/01/30 10:15:00;;;;;;;;;2.60;1.60;;;;;23.62;29.72;102990.94;5099813;27;46449;-44
2022/01/30 10:17:46;;;;;;;;;6.20;3.20;;;;;23.82;32.50;102990.50;5099533;27;45315;-47
2022/01/30 10:20:17;;;;;;;;;3.00;3.00;;;;;23.99;31.32;102994.81;5100116;27;45219;-43
2022/01/30 10:23:01;;;;;;;;;5.00;2.80;;;;;24.26;29.07;102987.09;5100388;27;45247;-48
2022/01/30 10:25:31;;;;;;;;;6.80;4.00;;;;;24.47;29.23;102991.88;5099758;27;46946;-46
2022/01/30 10:28:14;;;;;;;;;4.00;2.40;;;;;24.46;28.12;102991.03;5099152;27;45243;-42
2022/01/30 10:30:43;;;;;;;;;4.40;4.00;;;;;24.24;27.82;102994.63;5099829;27;46671;-44
2022/01/30 10:33:09;;;;;;;;;7.60;5.20;;;;;23.94;28.01;102977.34;5100195;27;45277;-45
2022/01/30 10:35:56;;;;;;;;;5.75;5.75;;;;;23.92;28.50;102982.94;5081364;27;47150;-49
2022/01/30 10:38:35;;;;;;;;;6.80;3.40;;;;;24.17;29.70;102991.78;5099463;27;45268;-43
2022/01/30 10:41:11;;;;;;;;;9.60;6.60;;;;;24.27;30.13;102996.94;5099471;27;45396;-48
2022/01/30 10:43:57;;;;;;;;;8.20;5.80;;;;;23.37;29.66;102975.78;5099949;27;45469;-44
2022/01/30 10:46:33;;;;;;;;;6.80;5.20;;;;;23.74;28.63;102976.97;5098909;27;45287;-54
2022/01/30 10:48:59;;;;;;;;;6.40;5.00;;;;;23.74;29.22;102982.41;5099221;27;45292;-54
2022/01/30 10:51:27;;;;;;;;;6.00;4.00;;;;;23.68;27.93;102981.22;5099260;27;45560;-50
2022/01/30 10:53:52;;;;;;;;;9.20;5.00;;;;;23.41;28.62;102974.41;5099597;27;45272;-46
2022/01/30 10:56:27;;;;;;;;;4.75;4.75;;;;;22.17;28.95;102974.88;5099560;27;45372;-43
2022/01/30 10:59:14;;;;;;;;;6.00;6.00;;;;;20.54;33.29;102982.31;5099299;27;45403;-44
2022/01/30 11:01:44;;;;;;;;;5.40;4.40;;;;;19.88;33.75;102984.41;5099075;27;45377;-42
2022/01/30 11:04:27;;;;;;;;;8.00;5.00;;;;;19.71;34.87;102984.41;5099536;27;45365;-46
2022/01/30 11:06:54;;;;;;;;;5.60;3.00;;;;;19.65;38.41;102993.97;5098012;27;46384;-44
2022/01/30 11:09:27;;;;;;;;;9.00;5.00;;;;;19.35;35.22;102984.31;5098025;27;45523;-49
2022/01/30 11:12:16;;;;;;;;;4.60;3.40;;;;;18.83;34.96;102984.78;5098904;27;45436;-52
2022/01/30 11:14:53;;;;;;;;;8.25;6.00;;;;;18.56;35.75;102979.31;5098659;27;45524;-47
2022/01/30 11:17:21;;;;;;;;;7.00;2.25;;;;;18.00;35.72;102978.22;5098839;27;46103;-42
2022/01/30 11:19:56;;;;;;;;;6.25;4.00;;;;;17.60;36.11;102970.19;5099014;27;45478;-43
2022/01/30 11:22:23;;;;;;;;;5.50;4.75;;;;;18.13;36.61;102964.47;5098900;27;45385;-42
2022/01/30 11:25:01;;;;;;;;;10.00;4.25;;;;;19.64;35.99;102970.69;5098893;27;45365;-44
2022/01/30 11:27:26;;;;;;;;;3.75;3.75;;;;;20.85;32.79;102963.75;5098259;27;45548;-46
2022/01/30 11:29:52;;;;;;;;;5.75;4.00;;;;;21.54;31.43;102965.44;5097953;27;45609;-42
2022/01/30 11:32:20;;;;;;;;;6.75;4.25;;;;;21.52;31.98;102953.91;5098592;27;45482;-45
2022/01/30 11:34:45;;;;;;;;;5.75;3.00;;;;;21.81;31.25;102948.03;5098735;27;45355;-50
2022/01/30 11:37:13;;;;;;;;;6.50;5.00;;;;;22.28;29.81;102946.56;5098399;27;46843;-44
2022/01/30 11:39:52;;;;;;;;;8.50;4.00;;;;;22.34;30.09;102929.63;5098739;27;45231;-54
2022/01/30 11:42:27;;;;;;;;;4.50;4.50;;;;;22.79;29.67;102939.84;5098717;27;45422;-45
2022/01/30 11:45:08;;;;;;;;;5.00;3.25;;;;;23.41;28.75;102936.38;5098867;27;45314;-41
2022/01/30 11:47:52;;;;;;;;;5.60;4.20;;;;;23.88;28.72;102933.53;5097956;27;45963;-55
2022/01/30 11:50:20;;;;;;;;;6.60;4.60;;;;;24.08;27.90;102928.44;5098294;27;45234;-43
2022/01/30 11:52:56;;;;;;;;;8.60;5.60;;;;;24.35;27.26;102927.00;5098046;27;45385;-45
2022/01/30 11:55:40;;;;;;;;;9.40;6.20;;;;;24.58;27.07;102918.81;5098734;27;45339;-49
2022/01/30 11:58:06;;;;;;;;;9.00;6.60;;;;;24.45;26.86;102918.63;5098121;27;45437;-42
2022/01/30 12:00:46;;;;;;;;;7.20;6.80;;;;;24.32;26.93;102919.22;5097322;27;45339;-43
2022/01/30 12:03:31;;;;;;;;;8.80;4.00;;;;;24.39;26.97;102916.63;5098392;27;45235;-43
2022/01/30 12:06:18;;;;;;;;;5.20;5.20;;;;;24.52;27.35;102907.81;5098336;27;45283;-46
2022/01/30 12:08:49;;;;;;;;;11.80;6.00;;;;;24.54;26.23;102903.88;5097696;27;47326;-53
2022/01/30 12:11:36;;;;;;;;;7.00;4.80;;;;;22.93;28.81;102903.03;5098037;27;45426;-43
2022/01/30 12:14:11;;;;;;;;;7.60;6.80;;;;;23.54;29.41;102906.75;5098126;27;45248;-52
2022/01/30 12:16:46;;;;;;;;;3.80;3.40;;;;;23.73;29.05;102905.47;5098390;27;45434;-54
2022/01/30 12:19:37;;;;;;;;;8.80;6.60;;;;;23.08;29.75;102903.13;5097866;27;45510;-43
2022/01/30 12:22:20;;;;;;;;;11.00;5.20;;;;;23.75;28.52;102894.41;5014546;28;45471;-48
2022/01/30 12:24:47;;;;;;;;;7.20;6.00;;;;;23.53;28.05;102882.50;5015054;28;45541;-42